createdAt,value
2023-01-17T00:00:58.673Z,102580.19
2023-01-17T00:06:23.343Z,102575.31
2023-01-17T00:11:26.385Z,102570.81
2023-01-17T00:16:29.404Z,102581.66
2023-01-17T00:21:50.973Z,102565.09
2023-01-17T00:27:12.620Z,102562.63
2023-01-17T00:32:15.596Z,102580.31
2023-01-17T00:37:18.533Z,102581.44
2023-01-17T00:42:21.487Z,102558.31
2023-01-17T00:47:43.043Z,102567.72
2023-01-17T00:58:39.963Z,102554.03
2023-01-17T01:04:01.416Z,102555.81
2023-01-17T01:09:23.141Z,102557.91
2023-01-17T01:14:44.709Z,102582.88
2023-01-17T01:20:06.327Z,102563.41
2023-01-17T01:25:27.927Z,102557.09
2023-01-17T01:30:49.591Z,102579.50
2023-01-17T01:35:54.753Z,102568.53
2023-01-17T01:40:57.780Z,102581.69
2023-01-17T01:51:22.705Z,102585.75
2023-01-17T01:56:27.117Z,102580.88
2023-01-17T02:01:31.490Z,102569.78
2023-01-17T02:06:39.202Z,102580.44
2023-01-17T02:11:42.870Z,102579.31
2023-01-17T02:17:10.605Z,102583.66
2023-01-17T02:22:25.467Z,102587.66
2023-01-17T02:28:10.655Z,102586.56
2023-01-17T02:33:35.095Z,102599.66
2023-01-17T02:39:01.460Z,102592.34
2023-01-17T02:44:05.382Z,102570.47
2023-01-17T02:49:08.398Z,102556.16
2023-01-17T02:54:38.678Z,102605.72
2023-01-17T03:00:10.180Z,102591.06
2023-01-17T03:05:26.176Z,102589.69
2023-01-17T03:10:31.955Z,102591.81
2023-01-17T03:15:35.003Z,102601.81
2023-01-17T03:20:38.302Z,102601.63
2023-01-17T03:25:41.336Z,102617.63
2023-01-17T03:30:44.512Z,102617.94
2023-01-17T03:35:48.173Z,102624.63
2023-01-17T03:40:51.248Z,102606.47
2023-01-17T03:46:02.810Z,102621.75
2023-01-17T03:51:06.001Z,102610.38
2023-01-17T03:56:09.468Z,102613.94
2023-01-17T04:01:12.835Z,102642.16
2023-01-17T04:06:15.880Z,102651.13
2023-01-17T04:11:18.915Z,102653.31
2023-01-17T04:16:28.468Z,102655.72
2023-01-17T04:21:31.753Z,102643.25
2023-01-17T04:26:34.904Z,102655.25
2023-01-17T04:31:38.064Z,102668.84
2023-01-17T04:36:41.610Z,102655.59
2023-01-17T04:41:44.574Z,102654.16
2023-01-17T04:46:47.655Z,102690.94
2023-01-17T04:51:50.857Z,102677.38
2023-01-17T04:56:54.049Z,102710.13
2023-01-17T05:01:57.119Z,102709.16
2023-01-17T05:07:00.480Z,102730.28
2023-01-17T05:12:03.869Z,102719.81
2023-01-17T05:17:07.006Z,102723.59
2023-01-17T05:22:16.207Z,102706.03
2023-01-17T05:27:19.264Z,102730.00
2023-01-17T05:32:22.301Z,102728.09
2023-01-17T05:37:25.299Z,102724.78
2023-01-17T05:42:28.826Z,102730.91
2023-01-17T05:47:31.925Z,102715.97
2023-01-17T05:52:35.012Z,102745.03
2023-01-17T05:57:39.295Z,102742.22
2023-01-17T06:02:42.361Z,102729.25
2023-01-17T06:07:46.754Z,102735.94
2023-01-17T06:12:50.764Z,102713.19
2023-01-17T06:17:53.952Z,102714.59
2023-01-17T06:22:57.195Z,102731.78
2023-01-17T06:28:02.290Z,102729.19
2023-01-17T06:33:05.744Z,102715.34
2023-01-17T06:38:10.292Z,102701.88
2023-01-17T06:43:13.401Z,102717.50
2023-01-17T06:48:16.503Z,102702.16
2023-01-17T06:53:19.674Z,102696.09
2023-01-17T06:58:22.755Z,102691.25
2023-01-17T07:03:27.550Z,102722.41
2023-01-17T07:08:31.217Z,102711.22
2023-01-17T07:13:41.192Z,102725.06
2023-01-17T07:18:45.100Z,102731.78
2023-01-17T07:23:48.596Z,102704.66
2023-01-17T07:28:51.675Z,102723.97
2023-01-17T07:33:54.753Z,102721.69
2023-01-17T07:39:00.770Z,102715.59
2023-01-17T07:44:03.847Z,102685.97
2023-01-17T07:49:07.017Z,102712.25
2023-01-17T07:54:12.063Z,102705.19
2023-01-17T08:04:35.542Z,102715.09
2023-01-17T08:09:38.612Z,102697.78
2023-01-17T08:14:41.724Z,102699.94
2023-01-17T08:19:51.867Z,102702.53
2023-01-17T08:24:54.941Z,102697.25
2023-01-17T08:29:58.050Z,102706.53
2023-01-17T08:35:01.335Z,102671.97
2023-01-17T08:40:07.568Z,102682.00
2023-01-17T08:45:13.301Z,102680.00
2023-01-17T08:50:20.884Z,102680.00
2023-01-17T08:55:24.012Z,102683.00
2023-01-17T09:00:28.826Z,102681.81
2023-01-17T09:05:31.988Z,102690.88
2023-01-17T09:10:35.162Z,102664.41
2023-01-17T09:15:38.265Z,102678.50
2023-01-17T09:20:41.396Z,102673.06
2023-01-17T09:25:44.941Z,102648.88
2023-01-17T09:30:48.712Z,102680.75
2023-01-17T09:35:51.851Z,102651.16
2023-01-17T09:40:54.990Z,102677.16
2023-01-17T09:45:58.193Z,102672.25
2023-01-17T09:51:07.813Z,102663.94
2023-01-17T09:56:22.945Z,102630.91
2023-01-17T10:01:29.328Z,102647.63
2023-01-17T10:07:04.766Z,102648.13
2023-01-17T10:12:44.319Z,102627.75
2023-01-17T10:17:57.904Z,102661.81
2023-01-17T10:23:26.335Z,102655.06
2023-01-17T10:28:48.034Z,102634.66
2023-01-17T10:33:53.895Z,102639.41
2023-01-17T10:39:01.199Z,102635.91
2023-01-17T10:44:25.574Z,102640.88
2023-01-17T10:49:29.047Z,102641.78
2023-01-17T10:54:36.375Z,102647.31
2023-01-17T10:59:42.411Z,102623.81
2023-01-17T11:04:50.141Z,102639.13
2023-01-17T11:09:58.067Z,102599.84
2023-01-17T11:15:22.330Z,102634.50
2023-01-17T11:20:38.017Z,102627.44
2023-01-17T11:25:48.968Z,102619.47
2023-01-17T11:30:57.735Z,102636.84
2023-01-17T11:36:02.352Z,102627.59
2023-01-17T11:41:22.520Z,102637.31
2023-01-17T11:46:28.548Z,102646.19
2023-01-17T11:51:41.733Z,102632.34
2023-01-17T11:57:01.052Z,102647.66
2023-01-17T12:02:32.152Z,102650.72
2023-01-17T12:13:38.619Z,102638.84
2023-01-17T12:19:12.912Z,102629.25
2023-01-17T12:31:09.833Z,102647.16
2023-01-17T12:41:56.812Z,102666.09
2023-01-17T12:47:04.893Z,102638.78
2023-01-17T12:52:26.197Z,102660.25
2023-01-17T12:57:56.349Z,102663.59
2023-01-17T13:03:24.359Z,102669.72
2023-01-17T13:08:41.649Z,102677.44
2023-01-17T13:19:30.841Z,102676.63
2023-01-17T13:24:36.733Z,102677.22
2023-01-17T13:30:15.630Z,102685.16
2023-01-17T13:35:23.109Z,102690.97
2023-01-17T13:40:44.469Z,102698.28
2023-01-17T13:45:57.045Z,102674.28
2023-01-17T13:51:05.519Z,102692.22
2023-01-17T13:56:19.902Z,102697.22
2023-01-17T14:01:23.086Z,102704.47
2023-01-17T14:06:40.999Z,102707.97
2023-01-17T14:11:58.036Z,102714.75
2023-01-17T14:17:20.699Z,102726.75
2023-01-17T14:22:35.257Z,102703.72
2023-01-17T14:27:46.070Z,102701.28
2023-01-17T14:33:11.003Z,102726.13
2023-01-17T14:38:26.236Z,102716.19
2023-01-17T14:43:33.455Z,102712.16
2023-01-17T14:48:40.635Z,102719.31
2023-01-17T14:53:53.793Z,102725.41
2023-01-17T14:59:17.547Z,102731.81
2023-01-17T15:04:25.573Z,102724.09
2023-01-17T15:09:33.085Z,102733.91
2023-01-17T15:14:41.785Z,102736.16
2023-01-17T15:19:47.376Z,102734.78
2023-01-17T15:24:51.116Z,102713.69
2023-01-17T15:30:02.595Z,102733.13
2023-01-17T15:35:08.273Z,102699.56
2023-01-17T15:40:25.842Z,102753.25
2023-01-17T15:45:33.981Z,102720.13
2023-01-17T15:50:39.945Z,102738.66
2023-01-17T15:55:43.402Z,102735.56
2023-01-17T16:00:47.283Z,102746.88
2023-01-17T16:05:52.420Z,102724.72
2023-01-17T16:11:03.974Z,102735.63
2023-01-17T16:16:19.207Z,102760.50
2023-01-17T16:21:32.155Z,102753.88
2023-01-17T16:26:35.281Z,102740.28
2023-01-17T16:31:38.382Z,102772.41
2023-01-17T16:36:41.402Z,102755.03
2023-01-17T16:41:44.457Z,102782.44
2023-01-17T16:46:47.463Z,102771.75
2023-01-17T16:51:52.053Z,102772.97
2023-01-17T16:56:55.143Z,102754.56
2023-01-17T17:02:01.741Z,102775.34
2023-01-17T17:07:04.850Z,102773.94
2023-01-17T17:12:08.018Z,102755.06
2023-01-17T17:17:11.108Z,102750.81
2023-01-17T17:22:14.158Z,102731.91
2023-01-17T17:27:17.228Z,102747.34
2023-01-17T17:32:20.530Z,102769.97
2023-01-17T17:37:23.951Z,102753.38
2023-01-17T17:42:29.304Z,102770.88
2023-01-17T17:47:32.396Z,102781.34
2023-01-17T17:52:35.388Z,102760.16
2023-01-17T17:57:38.411Z,102782.28
2023-01-17T18:02:41.569Z,102768.88
2023-01-17T18:07:44.760Z,102755.03
2023-01-17T18:12:47.982Z,102736.56
2023-01-17T18:17:52.968Z,102749.75
2023-01-17T18:22:56.306Z,102756.84
2023-01-17T18:28:02.121Z,102739.16
2023-01-17T18:33:05.178Z,102756.94
2023-01-17T18:38:08.446Z,102754.00
2023-01-17T18:43:14.013Z,102709.22
2023-01-17T18:48:17.120Z,102742.31
2023-01-17T18:53:20.392Z,102721.38
2023-01-17T18:58:25.142Z,102754.16
2023-01-17T19:03:31.818Z,102719.69
2023-01-17T19:08:35.951Z,102729.16
2023-01-17T19:13:40.805Z,102754.13
2023-01-17T19:24:00.938Z,102743.31
2023-01-17T19:29:08.244Z,102733.25
2023-01-17T19:34:19.140Z,102730.41
2023-01-17T19:39:25.715Z,102745.50
2023-01-17T19:44:28.864Z,102734.41
2023-01-17T19:49:32.459Z,102765.72
2023-01-17T19:59:57.813Z,102751.53
2023-01-17T20:05:00.947Z,102754.13
2023-01-17T20:10:08.951Z,102728.56
2023-01-17T20:15:11.996Z,102757.31
2023-01-17T20:20:16.085Z,102728.25
2023-01-17T20:25:19.180Z,102729.50
2023-01-17T20:30:24.843Z,102737.50
2023-01-17T20:35:29.072Z,102735.09
2023-01-17T20:40:32.204Z,102736.28
2023-01-17T20:45:35.370Z,102748.16
2023-01-17T20:50:38.443Z,102733.75
2023-01-17T20:55:41.407Z,102727.47
2023-01-17T21:00:44.427Z,102719.69
2023-01-17T21:05:47.622Z,102743.66
2023-01-17T21:10:50.771Z,102717.41
2023-01-17T21:15:54.056Z,102724.84
2023-01-17T21:21:26.359Z,102747.66
2023-01-17T21:26:29.623Z,102755.16
2023-01-17T21:31:45.235Z,102744.06
2023-01-17T21:36:48.766Z,102743.06
2023-01-17T21:41:51.933Z,102731.97
2023-01-17T21:46:56.587Z,102754.19
2023-01-17T21:51:59.764Z,102763.31
2023-01-17T21:57:21.515Z,102746.19
2023-01-17T22:02:24.778Z,102746.06
2023-01-17T22:07:29.313Z,102749.91
2023-01-17T22:12:32.354Z,102784.75
2023-01-17T22:17:38.591Z,102765.38
2023-01-17T22:22:41.719Z,102756.63
2023-01-17T22:27:44.709Z,102762.91
2023-01-17T22:32:47.857Z,102759.22
2023-01-17T22:37:53.515Z,102766.78
2023-01-17T22:42:56.842Z,102785.69
2023-01-17T22:48:00.094Z,102786.66
2023-01-17T22:53:03.176Z,102793.28
2023-01-17T22:58:06.192Z,102759.38
2023-01-17T23:03:09.306Z,102786.09
2023-01-17T23:08:12.633Z,102786.72
2023-01-17T23:13:15.676Z,102774.28
2023-01-17T23:18:37.240Z,102776.50
2023-01-17T23:23:40.394Z,102772.91
2023-01-17T23:28:48.152Z,102809.78
2023-01-17T23:33:52.307Z,102792.31
2023-01-17T23:38:55.312Z,102818.56
2023-01-17T23:43:59.847Z,102812.06
2023-01-17T23:54:23.026Z,102811.81
2023-01-17T23:59:26.132Z,102797.03
